F/V Cote D'ambre — FPEY — position and weather

sailwx.info

Track history (hours):
 
Tides and Currents Weather Stations Pressure Air Temp Water Temp Dewpoint Dewpoint Depression Visibility Wind Speed Wind Dir Waves Ship Positions

F/V Cote D'ambre

Last reported at 2017-Aug-23 05:59 UTC. Time now 2017-Aug-23 06:21 UTC.
Position N 46°45' W 003°22'.

Length 16 m; draft 4 m.

Type: Fishing. MMSI: 227128800.

Date/timePositionNaut miles runAvg speedWind from/ knotsBaromVisibWave heightAir tempDewpointWater temp
2017-Aug-23 05:59N 46°45' W 003°22'1 2.8
2017-Aug-23 05:30N 46°44' W 003°24'2 2.7
2017-Aug-23 04:43N 46°45' W 003°21'1 3.3
2017-Aug-23 04:21N 46°46' W 003°20'1 3.7
2017-Aug-23 04:00N 46°47' W 003°20'1 2.4
2017-Aug-23 03:30N 46°48' W 003°19'2 3.0
2017-Aug-23 02:58N 46°47' W 003°20'2 3.3
2017-Aug-23 02:29N 46°45' W 003°20'1 2.6
2017-Aug-23 01:58N 46°44' W 003°20'1 2.9
2017-Aug-23 01:31N 46°43' W 003°18'1 2.8
2017-Aug-23 01:00N 46°44' W 003°16'2 3.1
2017-Aug-23 00:31N 46°45' W 003°17'2 3.6
2017-Aug-23 00:01N 46°45' W 003°19'2 3.6
2017-Aug-22 23:30N 46°45' W 003°22'2 3.3
2017-Aug-22 23:01N 46°45' W 003°24'3 2.7
2017-Aug-22 21:44N 46°46' W 003°20'1 3.4
2017-Aug-22 21:28N 46°47' W 003°19'2 3.2
2017-Aug-22 20:59N 46°48' W 003°18'6 1.5
2017-Aug-22 16:46N 46°53' W 003°24'1 3.7
2017-Aug-22 16:27N 46°54' W 003°24'10 7.8
2017-Aug-22 15:11N 47°04' W 003°23'2 8.4
2017-Aug-22 14:59N 47°06' W 003°23'4 8.2
2017-Aug-22 14:30N 47°10' W 003°23'4 8.2
2017-Aug-22 14:00N 47°14' W 003°23'4 8.4
2017-Aug-22 13:30N 47°18' W 003°23'4 8.0
2017-Aug-22 13:01N 47°22' W 003°23'4 7.6
2017-Aug-22 12:31N 47°26' W 003°23'4 7.8
2017-Aug-22 12:01N 47°30' W 003°23'4 7.8
2017-Aug-22 11:31N 47°34' W 003°22'4 7.7
2017-Aug-22 11:01N 47°37' W 003°22'4 7.8
2017-Aug-22 10:30N 47°41' W 003°22'2 4.5
2017-Aug-22 09:59N 47°44' W 003°22'0 0.0
2017-Aug-22 09:29N 47°44' W 003°22'0 0.0
2017-Aug-22 08:59N 47°44' W 003°22'0 0.0
2017-Aug-22 08:29N 47°44' W 003°22'0 0.0
2017-Aug-22 07:59N 47°44' W 003°22'0 0.0
2017-Aug-22 07:29N 47°44' W 003°22'0 1.0
2017-Aug-22 07:00N 47°44' W 003°21'0 0.0
2017-Aug-21 01:39N 47°44' W 003°22'0 0.5
2017-Aug-21 01:29N 47°44' W 003°22'0 0.3
2017-Aug-21 00:59N 47°44' W 003°22'0 0.0
2017-Aug-21 00:29N 47°44' W 003°22'0 0.0
2017-Aug-20 23:59N 47°44' W 003°22'4 7.4
2017-Aug-20 23:30N 47°40' W 003°22'4 8.6
2017-Aug-20 23:00N 47°36' W 003°22'4 8.7
2017-Aug-20 22:30N 47°32' W 003°24'4 8.5
2017-Aug-20 22:01N 47°28' W 003°26'4 8.5
2017-Aug-20 21:31N 47°24' W 003°28'4 8.5
2017-Aug-20 21:01N 47°20' W 003°29'4 7.5
2017-Aug-20 20:31N 47°16' W 003°31'1 2.3
2017-Aug-20 20:01N 47°16' W 003°32'2 3.2
2017-Aug-20 19:19N 47°15' W 003°35'1 3.4
2017-Aug-20 19:00N 47°14' W 003°35'2 3.5
2017-Aug-20 18:23N 47°13' W 003°32'1 3.3
2017-Aug-20 17:55N 47°12' W 003°31'2 4.1
2017-Aug-20 17:26N 47°10' W 003°29'4 8.3
2017-Aug-20 16:59N 47°07' W 003°26'5 8.2
2017-Aug-20 16:24N 47°04' W 003°22'13 3.9
2017-Aug-20 13:07N 46°51' W 003°18'5 1.8
2017-Aug-20 10:18N 46°53' W 003°11'2 3.4
2017-Aug-20 09:45N 46°53' W 003°13'1 3.5
2017-Aug-20 09:21N 46°53' W 003°15'2 4.3
2017-Aug-20 08:59N 46°52' W 003°17'2 0.7
2017-Aug-20 05:57N 46°50' W 003°16'2 3.3
2017-Aug-20 05:25N 46°50' W 003°14'1 2.8
2017-Aug-20 04:53N 46°49' W 003°12'2 2.5
2017-Aug-20 04:13N 46°48' W 003°12'1 2.7
2017-Aug-20 03:56N 46°48' W 003°11'1 2.9
2017-Aug-20 03:28N 46°47' W 003°10'26 1.2
2017-Aug-19 05:44N 47°12' W 003°23'1 3.4
2017-Aug-19 05:30N 47°12' W 003°24'2 3.1
2017-Aug-19 05:00N 47°12' W 003°26'2 4.7
2017-Aug-19 04:30N 47°14' W 003°27'4 8.1
2017-Aug-19 04:00N 47°18' W 003°26'4 8.2
2017-Aug-19 03:30N 47°22' W 003°25'4 8.2
2017-Aug-19 03:00N 47°26' W 003°24'4 8.0
2017-Aug-19 02:30N 47°30' W 003°23'4 8.0
2017-Aug-19 02:00N 47°34' W 003°23'4 8.5
2017-Aug-19 01:30N 47°38' W 003°22'4 8.3
2017-Aug-19 01:00N 47°42' W 003°22'1 2.4
2017-Aug-19 00:29N 47°44' W 003°22'0 0.0
2017-Aug-18 23:59N 47°44' W 003°22'0 0.0
2017-Aug-18 23:29N 47°44' W 003°22'0 0.3
2017-Aug-18 23:00N 47°44' W 003°22'0 0.0
2017-Aug-18 22:30N 47°44' W 003°22'3 6.1
2017-Aug-18 22:00N 47°41' W 003°24'4 8.4
2017-Aug-18 21:30N 47°40' W 003°30'4 7.5
2017-Aug-18 21:00N 47°37' W 003°34'3 6.9
2017-Aug-18 20:30N 47°34' W 003°36'7 2.4
2017-Aug-18 17:32N 47°29' W 003°43'0 3.3
2017-Aug-18 17:30N 47°29' W 003°43'1 2.6
2017-Aug-18 17:00N 47°28' W 003°43'2 2.9
2017-Aug-18 16:29N 47°26' W 003°42'2 3.3
2017-Aug-18 16:00N 47°25' W 003°40'1 2.7
2017-Aug-18 15:30N 47°24' W 003°39'1 2.7
2017-Aug-18 15:01N 47°24' W 003°41'2 1.3
2017-Aug-18 13:11N 47°24' W 003°45'1 3.2
2017-Aug-18 13:00N 47°24' W 003°44'1 2.8
2017-Aug-18 12:30N 47°26' W 003°44'2 2.3
2017-Aug-18 11:28N 47°26' W 003°47'3 1.9
2017-Aug-18 10:03N 47°24' W 003°44'0 3.2
2017-Aug-18 10:00N 47°24' W 003°44'1 2.8
2017-Aug-18 09:30N 47°25' W 003°43'2 3.4
2017-Aug-18 09:00N 47°26' W 003°45'2 3.1
2017-Aug-18 08:29N 47°26' W 003°47'2 3.3
2017-Aug-18 08:00N 47°25' W 003°46'9 2.6
2017-Aug-18 04:27N 47°20' W 003°35'1 1.9
2017-Aug-18 03:59N 47°21' W 003°34'3 7.0
2017-Aug-18 03:30N 47°24' W 003°31'4 7.5
2017-Aug-18 03:01N 47°27' W 003°29'4 7.4
2017-Aug-18 02:31N 47°30' W 003°26'4 7.5
2017-Aug-18 02:00N 47°34' W 003°24'4 7.5
2017-Aug-18 01:31N 47°37' W 003°22'4 7.6
2017-Aug-18 01:00N 47°41' W 003°22'3 4.8
2017-Aug-18 00:27N 47°44' W 003°22'0 0.1
2017-Aug-18 00:00N 47°44' W 003°22'0 0.3
2017-Aug-17 23:30N 47°44' W 003°22'0 0.0
2017-Aug-17 23:00N 47°44' W 003°22'3 5.7
2017-Aug-17 22:30N 47°41' W 003°22'4 8.7
2017-Aug-17 22:00N 47°37' W 003°22'4 8.5
2017-Aug-17 21:31N 47°32' W 003°24'4 8.5
2017-Aug-17 21:00N 47°28' W 003°25'4 8.3
2017-Aug-17 20:30N 47°24' W 003°27'10 1.6
2017-Aug-17 14:22N 47°17' W 003°18'1 1.8
2017-Aug-17 14:00N 47°16' W 003°19'2 3.1
2017-Aug-17 13:21N 47°15' W 003°17'0 0.6
2017-Aug-17 13:00N 47°15' W 003°17'12 1.4
2017-Aug-17 04:22N 47°17' W 003°34'2 5.2
2017-Aug-17 04:00N 47°15' W 003°35'5 0.4
2017-Aug-16 15:35N 47°20' W 003°36'0 3.6
2017-Aug-16 15:30N 47°20' W 003°36'2 3.7
2017-Aug-16 15:00N 47°21' W 003°34'1 2.3
2017-Aug-16 14:30N 47°21' W 003°32'2 3.4
2017-Aug-16 14:00N 47°20' W 003°29'2 3.2
2017-Aug-16 13:31N 47°20' W 003°27'3 5.0
2017-Aug-16 13:00N 47°22' W 003°26'4 8.8
2017-Aug-16 12:30N 47°26' W 003°25'4 8.5
2017-Aug-16 12:01N 47°30' W 003°23'4 8.3
2017-Aug-16 11:30N 47°35' W 003°22'4 8.5
2017-Aug-16 11:01N 47°39' W 003°22'4 8.3
2017-Aug-16 10:31N 47°43' W 003°22'1 0.0
2017-Aug-15 14:02N 47°44' W 003°22'0 0.1
2017-Aug-15 13:59N 47°44' W 003°22'0 0.1
2017-Aug-15 13:30N 47°44' W 003°22'4 7.1
2017-Aug-15 13:00N 47°40' W 003°22'4 8.0
2017-Aug-15 12:30N 47°36' W 003°22'4 7.8
2017-Aug-15 12:00N 47°32' W 003°23'4 8.0
2017-Aug-15 11:30N 47°28' W 003°23'4 7.9
2017-Aug-15 11:00N 47°24' W 003°23'4 7.6
2017-Aug-15 10:30N 47°21' W 003°24'4 7.5
2017-Aug-15 10:00N 47°17' W 003°24'4 7.3
2017-Aug-15 09:30N 47°13' W 003°25'1 1.4
2017-Aug-15 09:00N 47°13' W 003°25'1 1.6
2017-Aug-15 08:30N 47°12' W 003°26'1 3.0
2017-Aug-15 08:00N 47°12' W 003°28'2 3.2
2017-Aug-15 07:30N 47°12' W 003°30'2 2.9
2017-Aug-15 06:58N 47°13' W 003°32'2 3.5
2017-Aug-15 06:30N 47°14' W 003°34'2 3.0
2017-Aug-15 05:59N 47°15' W 003°34'2 3.4
2017-Aug-15 05:30N 47°17' W 003°34'2 3.6
2017-Aug-15 04:53N 47°19' W 003°36'3 7.0
2017-Aug-15 04:30N 47°21' W 003°34'4 8.1
2017-Aug-15 04:00N 47°25' W 003°31'4 8.4
2017-Aug-15 03:30N 47°28' W 003°28'4 8.4
2017-Aug-15 03:00N 47°32' W 003°25'4 8.2
2017-Aug-15 02:30N 47°36' W 003°22'4 8.4
2017-Aug-15 02:00N 47°40' W 003°22'4 8.0
2017-Aug-15 01:30N 47°44' W 003°22'  
Track history (hours):
 
Tides and Currents Weather Stations Pressure Air Temp Water Temp Dewpoint Dewpoint Depression Visibility Wind Speed Wind Dir Waves Ship Positions

F/V Cote D'ambre

Last reported at 2017-Aug-23 05:59 UTC. Time now 2017-Aug-23 06:21 UTC.
Position N 46°45' W 003°22'.

Length 16 m; draft 4 m.

Type: Fishing. MMSI: 227128800.

Date/timePositionNaut miles runAvg speedWind from/ knotsBaromVisibWave heightAir tempDewpointWater temp
2017-Aug-23 05:59N 46°45' W 003°22'1 2.8
2017-Aug-23 05:30N 46°44' W 003°24'2 2.7
2017-Aug-23 04:43N 46°45' W 003°21'1 3.3
2017-Aug-23 04:21N 46°46' W 003°20'1 3.7
2017-Aug-23 04:00N 46°47' W 003°20'1 2.4
2017-Aug-23 03:30N 46°48' W 003°19'2 3.0
2017-Aug-23 02:58N 46°47' W 003°20'2 3.3
2017-Aug-23 02:29N 46°45' W 003°20'1 2.6
2017-Aug-23 01:58N 46°44' W 003°20'1 2.9
2017-Aug-23 01:31N 46°43' W 003°18'1 2.8
2017-Aug-23 01:00N 46°44' W 003°16'2 3.1
2017-Aug-23 00:31N 46°45' W 003°17'2 3.6
2017-Aug-23 00:01N 46°45' W 003°19'2 3.6
2017-Aug-22 23:30N 46°45' W 003°22'2 3.3
2017-Aug-22 23:01N 46°45' W 003°24'3 2.7
2017-Aug-22 21:44N 46°46' W 003°20'1 3.4
2017-Aug-22 21:28N 46°47' W 003°19'2 3.2
2017-Aug-22 20:59N 46°48' W 003°18'6 1.5
2017-Aug-22 16:46N 46°53' W 003°24'1 3.7
2017-Aug-22 16:27N 46°54' W 003°24'10 7.8
2017-Aug-22 15:11N 47°04' W 003°23'2 8.4
2017-Aug-22 14:59N 47°06' W 003°23'4 8.2
2017-Aug-22 14:30N 47°10' W 003°23'4 8.2
2017-Aug-22 14:00N 47°14' W 003°23'4 8.4
2017-Aug-22 13:30N 47°18' W 003°23'4 8.0
2017-Aug-22 13:01N 47°22' W 003°23'4 7.6
2017-Aug-22 12:31N 47°26' W 003°23'4 7.8
2017-Aug-22 12:01N 47°30' W 003°23'4 7.8
2017-Aug-22 11:31N 47°34' W 003°22'4 7.7
2017-Aug-22 11:01N 47°37' W 003°22'4 7.8
2017-Aug-22 10:30N 47°41' W 003°22'2 4.5
2017-Aug-22 09:59N 47°44' W 003°22'0 0.0
2017-Aug-22 09:29N 47°44' W 003°22'0 0.0
2017-Aug-22 08:59N 47°44' W 003°22'0 0.0
2017-Aug-22 08:29N 47°44' W 003°22'0 0.0
2017-Aug-22 07:59N 47°44' W 003°22'0 0.0
2017-Aug-22 07:29N 47°44' W 003°22'0 1.0
2017-Aug-22 07:00N 47°44' W 003°21'0 0.0
2017-Aug-21 01:39N 47°44' W 003°22'0 0.5
2017-Aug-21 01:29N 47°44' W 003°22'0 0.3
2017-Aug-21 00:59N 47°44' W 003°22'0 0.0
2017-Aug-21 00:29N 47°44' W 003°22'0 0.0
2017-Aug-20 23:59N 47°44' W 003°22'4 7.4
2017-Aug-20 23:30N 47°40' W 003°22'4 8.6
2017-Aug-20 23:00N 47°36' W 003°22'4 8.7
2017-Aug-20 22:30N 47°32' W 003°24'4 8.5
2017-Aug-20 22:01N 47°28' W 003°26'4 8.5
2017-Aug-20 21:31N 47°24' W 003°28'4 8.5
2017-Aug-20 21:01N 47°20' W 003°29'4 7.5
2017-Aug-20 20:31N 47°16' W 003°31'1 2.3
2017-Aug-20 20:01N 47°16' W 003°32'2 3.2
2017-Aug-20 19:19N 47°15' W 003°35'1 3.4
2017-Aug-20 19:00N 47°14' W 003°35'2 3.5
2017-Aug-20 18:23N 47°13' W 003°32'1 3.3
2017-Aug-20 17:55N 47°12' W 003°31'2 4.1
2017-Aug-20 17:26N 47°10' W 003°29'4 8.3
2017-Aug-20 16:59N 47°07' W 003°26'5 8.2
2017-Aug-20 16:24N 47°04' W 003°22'13 3.9
2017-Aug-20 13:07N 46°51' W 003°18'5 1.8
2017-Aug-20 10:18N 46°53' W 003°11'2 3.4
2017-Aug-20 09:45N 46°53' W 003°13'1 3.5
2017-Aug-20 09:21N 46°53' W 003°15'2 4.3
2017-Aug-20 08:59N 46°52' W 003°17'2 0.7
2017-Aug-20 05:57N 46°50' W 003°16'2 3.3
2017-Aug-20 05:25N 46°50' W 003°14'1 2.8
2017-Aug-20 04:53N 46°49' W 003°12'2 2.5
2017-Aug-20 04:13N 46°48' W 003°12'1 2.7
2017-Aug-20 03:56N 46°48' W 003°11'1 2.9
2017-Aug-20 03:28N 46°47' W 003°10'26 1.2
2017-Aug-19 05:44N 47°12' W 003°23'1 3.4
2017-Aug-19 05:30N 47°12' W 003°24'2 3.1
2017-Aug-19 05:00N 47°12' W 003°26'2 4.7
2017-Aug-19 04:30N 47°14' W 003°27'4 8.1
2017-Aug-19 04:00N 47°18' W 003°26'4 8.2
2017-Aug-19 03:30N 47°22' W 003°25'4 8.2
2017-Aug-19 03:00N 47°26' W 003°24'4 8.0
2017-Aug-19 02:30N 47°30' W 003°23'4 8.0
2017-Aug-19 02:00N 47°34' W 003°23'4 8.5
2017-Aug-19 01:30N 47°38' W 003°22'4 8.3
2017-Aug-19 01:00N 47°42' W 003°22'1 2.4
2017-Aug-19 00:29N 47°44' W 003°22'0 0.0
2017-Aug-18 23:59N 47°44' W 003°22'0 0.0
2017-Aug-18 23:29N 47°44' W 003°22'0 0.3
2017-Aug-18 23:00N 47°44' W 003°22'0 0.0
2017-Aug-18 22:30N 47°44' W 003°22'3 6.1
2017-Aug-18 22:00N 47°41' W 003°24'4 8.4
2017-Aug-18 21:30N 47°40' W 003°30'4 7.5
2017-Aug-18 21:00N 47°37' W 003°34'3 6.9
2017-Aug-18 20:30N 47°34' W 003°36'7 2.4
2017-Aug-18 17:32N 47°29' W 003°43'0 3.3
2017-Aug-18 17:30N 47°29' W 003°43'1 2.6
2017-Aug-18 17:00N 47°28' W 003°43'2 2.9
2017-Aug-18 16:29N 47°26' W 003°42'2 3.3
2017-Aug-18 16:00N 47°25' W 003°40'1 2.7
2017-Aug-18 15:30N 47°24' W 003°39'1 2.7
2017-Aug-18 15:01N 47°24' W 003°41'2 1.3
2017-Aug-18 13:11N 47°24' W 003°45'1 3.2
2017-Aug-18 13:00N 47°24' W 003°44'1 2.8
2017-Aug-18 12:30N 47°26' W 003°44'2 2.3
2017-Aug-18 11:28N 47°26' W 003°47'3 1.9
2017-Aug-18 10:03N 47°24' W 003°44'0 3.2
2017-Aug-18 10:00N 47°24' W 003°44'1 2.8
2017-Aug-18 09:30N 47°25' W 003°43'2 3.4
2017-Aug-18 09:00N 47°26' W 003°45'2 3.1
2017-Aug-18 08:29N 47°26' W 003°47'2 3.3
2017-Aug-18 08:00N 47°25' W 003°46'9 2.6
2017-Aug-18 04:27N 47°20' W 003°35'1 1.9
2017-Aug-18 03:59N 47°21' W 003°34'3 7.0
2017-Aug-18 03:30N 47°24' W 003°31'4 7.5
2017-Aug-18 03:01N 47°27' W 003°29'4 7.4
2017-Aug-18 02:31N 47°30' W 003°26'4 7.5
2017-Aug-18 02:00N 47°34' W 003°24'4 7.5
2017-Aug-18 01:31N 47°37' W 003°22'4 7.6
2017-Aug-18 01:00N 47°41' W 003°22'3 4.8
2017-Aug-18 00:27N 47°44' W 003°22'0 0.1
2017-Aug-18 00:00N 47°44' W 003°22'0 0.3
2017-Aug-17 23:30N 47°44' W 003°22'0 0.0
2017-Aug-17 23:00N 47°44' W 003°22'3 5.7
2017-Aug-17 22:30N 47°41' W 003°22'4 8.7
2017-Aug-17 22:00N 47°37' W 003°22'4 8.5
2017-Aug-17 21:31N 47°32' W 003°24'4 8.5
2017-Aug-17 21:00N 47°28' W 003°25'4 8.3
2017-Aug-17 20:30N 47°24' W 003°27'10 1.6
2017-Aug-17 14:22N 47°17' W 003°18'1 1.8
2017-Aug-17 14:00N 47°16' W 003°19'2 3.1
2017-Aug-17 13:21N 47°15' W 003°17'0 0.6
2017-Aug-17 13:00N 47°15' W 003°17'12 1.4
2017-Aug-17 04:22N 47°17' W 003°34'2 5.2
2017-Aug-17 04:00N 47°15' W 003°35'5 0.4
2017-Aug-16 15:35N 47°20' W 003°36'0 3.6
2017-Aug-16 15:30N 47°20' W 003°36'2 3.7
2017-Aug-16 15:00N 47°21' W 003°34'1 2.3
2017-Aug-16 14:30N 47°21' W 003°32'2 3.4
2017-Aug-16 14:00N 47°20' W 003°29'2 3.2
2017-Aug-16 13:31N 47°20' W 003°27'3 5.0
2017-Aug-16 13:00N 47°22' W 003°26'4 8.8
2017-Aug-16 12:30N 47°26' W 003°25'4 8.5
2017-Aug-16 12:01N 47°30' W 003°23'4 8.3
2017-Aug-16 11:30N 47°35' W 003°22'4 8.5
2017-Aug-16 11:01N 47°39' W 003°22'4 8.3
2017-Aug-16 10:31N 47°43' W 003°22'1 0.0
2017-Aug-15 14:02N 47°44' W 003°22'0 0.1
2017-Aug-15 13:59N 47°44' W 003°22'0 0.1
2017-Aug-15 13:30N 47°44' W 003°22'4 7.1
2017-Aug-15 13:00N 47°40' W 003°22'4 8.0
2017-Aug-15 12:30N 47°36' W 003°22'4 7.8
2017-Aug-15 12:00N 47°32' W 003°23'4 8.0
2017-Aug-15 11:30N 47°28' W 003°23'4 7.9
2017-Aug-15 11:00N 47°24' W 003°23'4 7.6
2017-Aug-15 10:30N 47°21' W 003°24'4 7.5
2017-Aug-15 10:00N 47°17' W 003°24'4 7.3
2017-Aug-15 09:30N 47°13' W 003°25'1 1.4
2017-Aug-15 09:00N 47°13' W 003°25'1 1.6
2017-Aug-15 08:30N 47°12' W 003°26'1 3.0
2017-Aug-15 08:00N 47°12' W 003°28'2 3.2
2017-Aug-15 07:30N 47°12' W 003°30'2 2.9
2017-Aug-15 06:58N 47°13' W 003°32'2 3.5
2017-Aug-15 06:30N 47°14' W 003°34'2 3.0
2017-Aug-15 05:59N 47°15' W 003°34'2 3.4
2017-Aug-15 05:30N 47°17' W 003°34'2 3.6
2017-Aug-15 04:53N 47°19' W 003°36'3 7.0
2017-Aug-15 04:30N 47°21' W 003°34'4 8.1
2017-Aug-15 04:00N 47°25' W 003°31'4 8.4
2017-Aug-15 03:30N 47°28' W 003°28'4 8.4
2017-Aug-15 03:00N 47°32' W 003°25'4 8.2
2017-Aug-15 02:30N 47°36' W 003°22'4 8.4
2017-Aug-15 02:00N 47°40' W 003°22'4 8.0
2017-Aug-15 01:30N 47°44' W 003°22'  

Dump ship's entire track history